sensor_id;sensor_type;location;lat;lon;timestamp;temperature;humidity
2749;DHT22;1382;52.142;11.618;2024-02-04T00:07:17;12.50;61.30
2749;DHT22;1382;52.142;11.618;2024-02-04T00:09:44;12.60;61.70
2749;DHT22;1382;52.142;11.618;2024-02-04T00:31:44;12.30;61.20
2749;DHT22;1382;52.142;11.618;2024-02-04T00:34:11;12.30;61.20
2749;DHT22;1382;52.142;11.618;2024-02-04T00:36:46;12.30;61.10
2749;DHT22;1382;52.142;11.618;2024-02-04T00:39:13;12.30;61.20
2749;DHT22;1382;52.142;11.618;2024-02-04T00:41:40;12.30;61.20
2749;DHT22;1382;52.142;11.618;2024-02-04T00:44:07;12.30;61.20
2749;DHT22;1382;52.142;11.618;2024-02-04T00:46:34;12.20;61.30
2749;DHT22;1382;52.142;11.618;2024-02-04T00:49:02;12.20;61.40
2749;DHT22;1382;52.142;11.618;2024-02-04T00:51:32;12.20;61.50
2749;DHT22;1382;52.142;11.618;2024-02-04T00:53:59;12.20;61.60
2749;DHT22;1382;52.142;11.618;2024-02-04T00:56:26;12.20;61.70
2749;DHT22;1382;52.142;11.618;2024-02-04T00:58:53;12.10;61.80
2749;DHT22;1382;52.142;11.618;2024-02-04T01:01:20;12.20;62.10
2749;DHT22;1382;52.142;11.618;2024-02-04T01:03:48;11.90;62.00
2749;DHT22;1382;52.142;11.618;2024-02-04T01:06:16;12.20;62.30
2749;DHT22;1382;52.142;11.618;2024-02-04T01:08:43;12.00;62.20
2749;DHT22;1382;52.142;11.618;2024-02-04T01:11:12;12.00;62.30
2749;DHT22;1382;52.142;11.618;2024-02-04T01:13:39;11.90;62.20
2749;DHT22;1382;52.142;11.618;2024-02-04T01:16:06;11.90;62.30
2749;DHT22;1382;52.142;11.618;2024-02-04T01:18:44;11.90;62.30
2749;DHT22;1382;52.142;11.618;2024-02-04T01:21:22;12.00;62.50
2749;DHT22;1382;52.142;11.618;2024-02-04T01:24:14;11.90;62.50
2749;DHT22;1382;52.142;11.618;2024-02-04T01:26:55;11.90;62.70
2749;DHT22;1382;52.142;11.618;2024-02-04T01:29:31;11.90;62.80
2749;DHT22;1382;52.142;11.618;2024-02-04T01:32:45;11.90;63.00
2749;DHT22;1382;52.142;11.618;2024-02-04T01:38:35;11.90;62.70
2749;DHT22;1382;52.142;11.618;2024-02-04T01:41:05;11.90;62.60
2749;DHT22;1382;52.142;11.618;2024-02-04T01:43:33;12.10;62.60
2749;DHT22;1382;52.142;11.618;2024-02-04T01:46:01;12.00;62.30
2749;DHT22;1382;52.142;11.618;2024-02-04T01:48:46;12.00;62.00
2749;DHT22;1382;52.142;11.618;2024-02-04T01:51:14;12.00;61.80
2749;DHT22;1382;52.142;11.618;2024-02-04T01:53:49;11.90;61.90
2749;DHT22;1382;52.142;11.618;2024-02-04T01:56:17;11.90;61.90
2749;DHT22;1382;52.142;11.618;2024-02-04T01:58:44;11.90;61.70
2749;DHT22;1382;52.142;11.618;2024-02-04T02:01:13;11.80;61.70
2749;DHT22;1382;52.142;11.618;2024-02-04T02:03:40;11.80;61.70
2749;DHT22;1382;52.142;11.618;2024-02-04T02:06:10;11.80;61.80
2749;DHT22;1382;52.142;11.618;2024-02-04T02:08:56;12.00;62.00
2749;DHT22;1382;52.142;11.618;2024-02-04T02:11:50;11.80;61.80
2749;DHT22;1382;52.142;11.618;2024-02-04T02:15:18;11.80;61.80
2749;DHT22;1382;52.142;11.618;2024-02-04T02:18:09;11.80;61.90
2749;DHT22;1382;52.142;11.618;2024-02-04T02:21:16;11.60;61.70
2749;DHT22;1382;52.142;11.618;2024-02-04T02:27:59;11.60;61.50
2749;DHT22;1382;52.142;11.618;2024-02-04T02:30:30;11.80;61.60
2749;DHT22;1382;52.142;11.618;2024-02-04T02:33:12;11.70;61.50
2749;DHT22;1382;52.142;11.618;2024-02-04T02:35:46;11.60;61.20
2749;DHT22;1382;52.142;11.618;2024-02-04T02:38:23;11.90;61.30
2749;DHT22;1382;52.142;11.618;2024-02-04T02:41:17;11.80;61.10
2749;DHT22;1382;52.142;11.618;2024-02-04T03:30:29;11.40;60.80
2749;DHT22;1382;52.142;11.618;2024-02-04T03:44:52;11.10;60.60
2749;DHT22;1382;52.142;11.618;2024-02-04T03:48:05;11.30;60.90
2749;DHT22;1382;52.142;11.618;2024-02-04T03:54:09;11.20;61.10
2749;DHT22;1382;52.142;11.618;2024-02-04T03:57:11;11.10;61.20
2749;DHT22;1382;52.142;11.618;2024-02-04T04:00:18;11.10;61.10
2749;DHT22;1382;52.142;11.618;2024-02-04T04:02:57;11.10;61.20
2749;DHT22;1382;52.142;11.618;2024-02-04T04:06:05;11.20;61.30
2749;DHT22;1382;52.142;11.618;2024-02-04T04:12:27;10.90;61.00
2749;DHT22;1382;52.142;11.618;2024-02-04T04:15:25;11.00;61.20
2749;DHT22;1382;52.142;11.618;2024-02-04T04:18:20;10.90;61.10
2749;DHT22;1382;52.142;11.618;2024-02-04T04:24:56;11.00;61.00
2749;DHT22;1382;52.142;11.618;2024-02-04T04:27:27;11.00;61.40
2749;DHT22;1382;52.142;11.618;2024-02-04T04:30:38;10.90;61.20
2749;DHT22;1382;52.142;11.618;2024-02-04T04:36:35;11.00;61.10
2749;DHT22;1382;52.142;11.618;2024-02-04T04:39:09;10.90;61.50
2749;DHT22;1382;52.142;11.618;2024-02-04T04:45:30;11.00;61.40
2749;DHT22;1382;52.142;11.618;2024-02-04T04:48:40;11.00;61.60
2749;DHT22;1382;52.142;11.618;2024-02-04T04:51:53;10.90;61.60
2749;DHT22;1382;52.142;11.618;2024-02-04T04:57:56;11.10;61.80
2749;DHT22;1382;52.142;11.618;2024-02-04T05:04:03;11.00;61.60
2749;DHT22;1382;52.142;11.618;2024-02-04T05:33:04;11.20;62.10
2749;DHT22;1382;52.142;11.618;2024-02-04T05:35:34;11.00;62.00
2749;DHT22;1382;52.142;11.618;2024-02-04T05:38:02;11.10;62.10
2749;DHT22;1382;52.142;11.618;2024-02-04T05:40:38;11.10;61.90
2749;DHT22;1382;52.142;11.618;2024-02-04T05:43:05;11.20;61.90
2749;DHT22;1382;52.142;11.618;2024-02-04T05:45:35;11.20;62.00
2749;DHT22;1382;52.142;11.618;2024-02-04T05:48:06;11.30;62.10
2749;DHT22;1382;52.142;11.618;2024-02-04T05:50:40;11.20;62.00
2749;DHT22;1382;52.142;11.618;2024-02-04T05:53:15;11.40;62.50
2749;DHT22;1382;52.142;11.618;2024-02-04T05:55:53;11.30;62.30
2749;DHT22;1382;52.142;11.618;2024-02-04T05:58:43;11.30;62.40
2749;DHT22;1382;52.142;11.618;2024-02-04T06:01:27;11.30;62.20
2749;DHT22;1382;52.142;11.618;2024-02-04T06:04:15;11.30;62.30
2749;DHT22;1382;52.142;11.618;2024-02-04T06:07:14;11.40;62.50
2749;DHT22;1382;52.142;11.618;2024-02-04T06:12:55;11.30;62.20
2749;DHT22;1382;52.142;11.618;2024-02-04T06:33:23;11.10;62.60
2749;DHT22;1382;52.142;11.618;2024-02-04T06:36:09;11.20;62.50
2749;DHT22;1382;52.142;11.618;2024-02-04T06:39:01;11.10;62.80
2749;DHT22;1382;52.142;11.618;2024-02-04T06:41:47;11.20;62.70
2749;DHT22;1382;52.142;11.618;2024-02-04T06:44:24;11.20;62.60
2749;DHT22;1382;52.142;11.618;2024-02-04T06:46:57;11.10;62.50
2749;DHT22;1382;52.142;11.618;2024-02-04T06:53:15;11.20;62.20
2749;DHT22;1382;52.142;11.618;2024-02-04T06:56:25;11.40;62.70
2749;DHT22;1382;52.142;11.618;2024-02-04T06:58:52;11.20;62.10
2749;DHT22;1382;52.142;11.618;2024-02-04T07:01:34;11.40;62.50
2749;DHT22;1382;52.142;11.618;2024-02-04T07:04:02;11.40;62.30
2749;DHT22;1382;52.142;11.618;2024-02-04T07:06:30;11.20;62.20
2749;DHT22;1382;52.142;11.618;2024-02-04T07:08:57;11.20;62.20
2749;DHT22;1382;52.142;11.618;2024-02-04T07:11:24;11.40;62.40
2749;DHT22;1382;52.142;11.618;2024-02-04T07:13:51;11.30;62.30
2749;DHT22;1382;52.142;11.618;2024-02-04T07:16:18;11.30;62.20
2749;DHT22;1382;52.142;11.618;2024-02-04T07:18:45;11.30;62.10
2749;DHT22;1382;52.142;11.618;2024-02-04T07:21:12;11.30;62.10
2749;DHT22;1382;52.142;11.618;2024-02-04T07:23:40;11.40;62.10
2749;DHT22;1382;52.142;11.618;2024-02-04T07:26:10;11.40;61.90
2749;DHT22;1382;52.142;11.618;2024-02-04T07:28:37;11.40;61.90
2749;DHT22;1382;52.142;11.618;2024-02-04T07:31:06;11.40;61.80
2749;DHT22;1382;52.142;11.618;2024-02-04T07:33:36;11.60;62.00
2749;DHT22;1382;52.142;11.618;2024-02-04T07:36:03;11.40;61.80
2749;DHT22;1382;52.142;11.618;2024-02-04T07:38:30;11.40;61.70
2749;DHT22;1382;52.142;11.618;2024-02-04T07:40:59;11.50;61.80
2749;DHT22;1382;52.142;11.618;2024-02-04T07:43:26;11.40;61.60
2749;DHT22;1382;52.142;11.618;2024-02-04T07:45:52;11.50;61.70
2749;DHT22;1382;52.142;11.618;2024-02-04T07:48:19;11.50;61.70
2749;DHT22;1382;52.142;11.618;2024-02-04T07:50:46;11.50;61.70
2749;DHT22;1382;52.142;11.618;2024-02-04T07:53:13;11.50;61.70
2749;DHT22;1382;52.142;11.618;2024-02-04T07:55:40;11.50;61.80
2749;DHT22;1382;52.142;11.618;2024-02-04T07:58:08;11.50;61.80
2749;DHT22;1382;52.142;11.618;2024-02-04T08:00:35;11.50;61.80
2749;DHT22;1382;52.142;11.618;2024-02-04T08:03:02;11.50;61.80
2749;DHT22;1382;52.142;11.618;2024-02-04T08:05:29;11.50;61.90
2749;DHT22;1382;52.142;11.618;2024-02-04T08:07:56;11.50;62.00
2749;DHT22;1382;52.142;11.618;2024-02-04T08:10:22;11.50;62.10
2749;DHT22;1382;52.142;11.618;2024-02-04T08:12:49;11.50;62.10
2749;DHT22;1382;52.142;11.618;2024-02-04T08:15:18;11.50;61.90
2749;DHT22;1382;52.142;11.618;2024-02-04T08:17:44;11.50;62.00
2749;DHT22;1382;52.142;11.618;2024-02-04T08:20:12;11.50;62.00
2749;DHT22;1382;52.142;11.618;2024-02-04T08:22:39;11.50;61.90
2749;DHT22;1382;52.142;11.618;2024-02-04T08:25:06;11.60;61.90
2749;DHT22;1382;52.142;11.618;2024-02-04T08:27:33;11.50;61.80
2749;DHT22;1382;52.142;11.618;2024-02-04T08:30:00;11.60;61.70
2749;DHT22;1382;52.142;11.618;2024-02-04T08:32:30;11.60;61.60
2749;DHT22;1382;52.142;11.618;2024-02-04T08:35:07;11.80;61.80
2749;DHT22;1382;52.142;11.618;2024-02-04T08:37:34;11.60;61.70
2749;DHT22;1382;52.142;11.618;2024-02-04T08:40:01;11.70;61.80
2749;DHT22;1382;52.142;11.618;2024-02-04T08:42:28;11.70;61.70
2749;DHT22;1382;52.142;11.618;2024-02-04T08:44:55;11.70;61.70
2749;DHT22;1382;52.142;11.618;2024-02-04T08:47:25;11.70;61.70
2749;DHT22;1382;52.142;11.618;2024-02-04T08:49:53;11.90;61.90
2749;DHT22;1382;52.142;11.618;2024-02-04T08:52:20;11.80;61.80
2749;DHT22;1382;52.142;11.618;2024-02-04T08:54:47;11.90;61.90
2749;DHT22;1382;52.142;11.618;2024-02-04T08:57:14;11.90;61.80
2749;DHT22;1382;52.142;11.618;2024-02-04T08:59:41;11.90;61.70
2749;DHT22;1382;52.142;11.618;2024-02-04T09:02:08;12.00;61.50
2749;DHT22;1382;52.142;11.618;2024-02-04T09:04:37;12.00;61.30
2749;DHT22;1382;52.142;11.618;2024-02-04T09:07:05;12.00;61.10
2749;DHT22;1382;52.142;11.618;2024-02-04T09:09:32;12.00;61.20
2749;DHT22;1382;52.142;11.618;2024-02-04T09:11:59;12.10;61.30
2749;DHT22;1382;52.142;11.618;2024-02-04T09:14:26;12.10;61.40
2749;DHT22;1382;52.142;11.618;2024-02-04T09:16:54;12.10;61.20
2749;DHT22;1382;52.142;11.618;2024-02-04T09:19:23;12.20;60.80
2749;DHT22;1382;52.142;11.618;2024-02-04T09:21:50;12.20;60.80
2749;DHT22;1382;52.142;11.618;2024-02-04T09:24:19;12.20;60.50
2749;DHT22;1382;52.142;11.618;2024-02-04T09:26:46;12.30;60.00
2749;DHT22;1382;52.142;11.618;2024-02-04T09:29:12;12.10;59.80
2749;DHT22;1382;52.142;11.618;2024-02-04T09:31:39;12.30;59.70
2749;DHT22;1382;52.142;11.618;2024-02-04T09:34:06;12.30;59.60
2749;DHT22;1382;52.142;11.618;2024-02-04T09:36:34;12.30;60.00
2749;DHT22;1382;52.142;11.618;2024-02-04T09:39:01;12.30;59.80
2749;DHT22;1382;52.142;11.618;2024-02-04T09:41:29;12.30;59.70
2749;DHT22;1382;52.142;11.618;2024-02-04T09:43:57;12.40;59.50
2749;DHT22;1382;52.142;11.618;2024-02-04T10:02:27;12.60;58.80
2749;DHT22;1382;52.142;11.618;2024-02-04T10:04:54;12.60;59.10
2749;DHT22;1382;52.142;11.618;2024-02-04T10:07:21;12.70;59.20
2749;DHT22;1382;52.142;11.618;2024-02-04T10:09:48;12.70;59.20
2749;DHT22;1382;52.142;11.618;2024-02-04T10:12:15;12.90;59.10
2749;DHT22;1382;52.142;11.618;2024-02-04T10:14:41;12.80;59.00
2749;DHT22;1382;52.142;11.618;2024-02-04T10:17:08;12.80;57.90
2749;DHT22;1382;52.142;11.618;2024-02-04T10:19:37;12.80;57.90
2749;DHT22;1382;52.142;11.618;2024-02-04T10:22:04;12.90;57.20
2749;DHT22;1382;52.142;11.618;2024-02-04T10:24:31;12.90;57.00
2749;DHT22;1382;52.142;11.618;2024-02-04T10:26:58;12.90;56.60
2749;DHT22;1382;52.142;11.618;2024-02-04T10:29:25;12.90;56.40
2749;DHT22;1382;52.142;11.618;2024-02-04T10:31:56;12.90;56.30
2749;DHT22;1382;52.142;11.618;2024-02-04T10:34:23;12.90;56.20
2749;DHT22;1382;52.142;11.618;2024-02-04T10:36:51;12.90;55.50
2749;DHT22;1382;52.142;11.618;2024-02-04T10:39:18;12.90;55.60
2749;DHT22;1382;52.142;11.618;2024-02-04T10:41:49;12.90;55.70
2749;DHT22;1382;52.142;11.618;2024-02-04T10:44:17;13.00;56.10
2749;DHT22;1382;52.142;11.618;2024-02-04T10:46:46;12.90;55.70
2749;DHT22;1382;52.142;11.618;2024-02-04T10:49:14;13.00;55.80
2749;DHT22;1382;52.142;11.618;2024-02-04T10:51:42;13.00;56.50
2749;DHT22;1382;52.142;11.618;2024-02-04T10:54:15;12.90;56.10
2749;DHT22;1382;52.142;11.618;2024-02-04T10:56:43;13.00;56.30
2749;DHT22;1382;52.142;11.618;2024-02-04T10:59:10;13.00;56.50
2749;DHT22;1382;52.142;11.618;2024-02-04T11:01:38;13.20;56.60
2749;DHT22;1382;52.142;11.618;2024-02-04T11:04:06;13.10;56.40
2749;DHT22;1382;52.142;11.618;2024-02-04T11:06:34;13.10;56.00
2749;DHT22;1382;52.142;11.618;2024-02-04T11:09:02;13.20;55.80
2749;DHT22;1382;52.142;11.618;2024-02-04T11:11:31;13.20;54.60
2749;DHT22;1382;52.142;11.618;2024-02-04T11:14:01;13.20;54.10
2749;DHT22;1382;52.142;11.618;2024-02-04T11:16:43;13.20;53.90
2749;DHT22;1382;52.142;11.618;2024-02-04T11:19:23;13.10;53.70
2749;DHT22;1382;52.142;11.618;2024-02-04T11:22:17;13.10;53.50
2749;DHT22;1382;52.142;11.618;2024-02-04T11:24:59;13.10;53.20
2749;DHT22;1382;52.142;11.618;2024-02-04T11:27:30;13.00;53.70
2749;DHT22;1382;52.142;11.618;2024-02-04T11:29:57;13.00;54.10
2749;DHT22;1382;52.142;11.618;2024-02-04T11:32:24;13.00;53.80
2749;DHT22;1382;52.142;11.618;2024-02-04T11:34:52;13.00;53.90
2749;DHT22;1382;52.142;11.618;2024-02-04T11:37:19;13.00;54.40
2749;DHT22;1382;52.142;11.618;2024-02-04T11:39:50;13.00;54.00
2749;DHT22;1382;52.142;11.618;2024-02-04T11:42:17;13.00;53.80
2749;DHT22;1382;52.142;11.618;2024-02-04T11:44:46;13.00;53.60
2749;DHT22;1382;52.142;11.618;2024-02-04T11:47:22;13.00;54.50
2749;DHT22;1382;52.142;11.618;2024-02-04T11:49:54;13.00;55.40
2749;DHT22;1382;52.142;11.618;2024-02-04T11:52:21;13.00;54.90
2749;DHT22;1382;52.142;11.618;2024-02-04T11:54:48;13.00;55.00
2749;DHT22;1382;52.142;11.618;2024-02-04T11:57:16;13.10;55.00
2749;DHT22;1382;52.142;11.618;2024-02-04T11:59:43;13.10;55.10
2749;DHT22;1382;52.142;11.618;2024-02-04T12:02:11;13.20;54.20
2749;DHT22;1382;52.142;11.618;2024-02-04T12:04:38;13.20;54.00
2749;DHT22;1382;52.142;11.618;2024-02-04T12:07:05;13.20;53.70
2749;DHT22;1382;52.142;11.618;2024-02-04T12:09:33;13.40;54.00
2749;DHT22;1382;52.142;11.618;2024-02-04T12:12:01;13.30;53.40
2749;DHT22;1382;52.142;11.618;2024-02-04T12:14:28;13.30;53.70
2749;DHT22;1382;52.142;11.618;2024-02-04T12:16:56;13.30;54.10
2749;DHT22;1382;52.142;11.618;2024-02-04T12:19:24;13.30;54.00
2749;DHT22;1382;52.142;11.618;2024-02-04T12:21:52;13.30;54.20
2749;DHT22;1382;52.142;11.618;2024-02-04T12:24:19;13.40;54.10
2749;DHT22;1382;52.142;11.618;2024-02-04T12:26:46;13.40;54.30
2749;DHT22;1382;52.142;11.618;2024-02-04T12:29:13;13.40;54.00
2749;DHT22;1382;52.142;11.618;2024-02-04T12:31:40;13.40;54.30
2749;DHT22;1382;52.142;11.618;2024-02-04T12:34:09;13.50;53.40
2749;DHT22;1382;52.142;11.618;2024-02-04T12:36:37;13.50;52.60
2749;DHT22;1382;52.142;11.618;2024-02-04T12:39:04;13.50;52.50
2749;DHT22;1382;52.142;11.618;2024-02-04T12:41:31;13.40;52.70
2749;DHT22;1382;52.142;11.618;2024-02-04T12:43:59;13.40;53.30
2749;DHT22;1382;52.142;11.618;2024-02-04T12:46:26;13.40;53.80
2749;DHT22;1382;52.142;11.618;2024-02-04T12:48:54;13.40;53.50
2749;DHT22;1382;52.142;11.618;2024-02-04T12:51:25;13.50;52.50
2749;DHT22;1382;52.142;11.618;2024-02-04T12:54:04;13.40;52.40
2749;DHT22;1382;52.142;11.618;2024-02-04T12:56:45;13.50;51.90
2749;DHT22;1382;52.142;11.618;2024-02-04T12:59:22;13.30;52.60
2749;DHT22;1382;52.142;11.618;2024-02-04T13:01:54;13.20;53.10
2749;DHT22;1382;52.142;11.618;2024-02-04T13:04:22;13.20;52.90
2749;DHT22;1382;52.142;11.618;2024-02-04T13:06:49;13.20;52.50
2749;DHT22;1382;52.142;11.618;2024-02-04T13:09:18;13.20;52.40
2749;DHT22;1382;52.142;11.618;2024-02-04T13:11:45;13.20;53.00
2749;DHT22;1382;52.142;11.618;2024-02-04T13:14:12;13.20;52.00
2749;DHT22;1382;52.142;11.618;2024-02-04T13:16:39;13.20;52.70
2749;DHT22;1382;52.142;11.618;2024-02-04T13:19:06;13.20;52.90
2749;DHT22;1382;52.142;11.618;2024-02-04T13:21:32;13.20;52.70
2749;DHT22;1382;52.142;11.618;2024-02-04T13:23:59;13.20;52.20
2749;DHT22;1382;52.142;11.618;2024-02-04T13:26:27;13.30;52.40
2749;DHT22;1382;52.142;11.618;2024-02-04T13:28:54;13.20;52.00
2749;DHT22;1382;52.142;11.618;2024-02-04T13:31:21;13.30;52.00
2749;DHT22;1382;52.142;11.618;2024-02-04T13:33:48;13.20;52.10
2749;DHT22;1382;52.142;11.618;2024-02-04T13:36:15;13.10;52.50
2749;DHT22;1382;52.142;11.618;2024-02-04T13:38:42;13.20;52.60
2749;DHT22;1382;52.142;11.618;2024-02-04T13:41:13;13.20;52.50
2749;DHT22;1382;52.142;11.618;2024-02-04T13:43:41;13.20;52.40
2749;DHT22;1382;52.142;11.618;2024-02-04T13:46:08;13.30;52.50
2749;DHT22;1382;52.142;11.618;2024-02-04T13:48:35;13.20;52.40
2749;DHT22;1382;52.142;11.618;2024-02-04T13:51:02;13.20;51.80
2749;DHT22;1382;52.142;11.618;2024-02-04T13:53:28;13.30;52.00
2749;DHT22;1382;52.142;11.618;2024-02-04T13:55:55;13.30;52.20
2749;DHT22;1382;52.142;11.618;2024-02-04T13:58:25;13.10;52.40
2749;DHT22;1382;52.142;11.618;2024-02-04T14:00:53;13.10;52.50
2749;DHT22;1382;52.142;11.618;2024-02-04T14:03:20;13.10;51.60
2749;DHT22;1382;52.142;11.618;2024-02-04T14:05:47;13.10;51.60
2749;DHT22;1382;52.142;11.618;2024-02-04T14:08:14;13.10;51.90
2749;DHT22;1382;52.142;11.618;2024-02-04T14:10:41;13.10;52.40
2749;DHT22;1382;52.142;11.618;2024-02-04T14:13:08;13.00;52.60
2749;DHT22;1382;52.142;11.618;2024-02-04T14:15:37;13.10;52.30
2749;DHT22;1382;52.142;11.618;2024-02-04T14:18:05;13.10;51.50
2749;DHT22;1382;52.142;11.618;2024-02-04T14:20:32;13.10;51.50
2749;DHT22;1382;52.142;11.618;2024-02-04T14:22:59;13.00;52.00
2749;DHT22;1382;52.142;11.618;2024-02-04T14:25:26;13.00;51.60
2749;DHT22;1382;52.142;11.618;2024-02-04T14:27:56;13.00;52.20
2749;DHT22;1382;52.142;11.618;2024-02-04T14:30:23;12.90;52.20
2749;DHT22;1382;52.142;11.618;2024-02-04T14:32:50;12.90;52.40
2749;DHT22;1382;52.142;11.618;2024-02-04T14:35:18;13.00;52.50
2749;DHT22;1382;52.142;11.618;2024-02-04T14:37:45;13.00;52.60
2749;DHT22;1382;52.142;11.618;2024-02-04T14:40:12;13.00;52.90
2749;DHT22;1382;52.142;11.618;2024-02-04T14:42:39;13.00;53.10
2749;DHT22;1382;52.142;11.618;2024-02-04T14:45:09;13.10;52.80
2749;DHT22;1382;52.142;11.618;2024-02-04T14:47:36;13.00;52.90
2749;DHT22;1382;52.142;11.618;2024-02-04T14:50:04;13.00;53.20
2749;DHT22;1382;52.142;11.618;2024-02-04T14:52:32;13.00;53.20
2749;DHT22;1382;52.142;11.618;2024-02-04T14:54:59;13.00;52.90
2749;DHT22;1382;52.142;11.618;2024-02-04T14:57:26;13.00;53.20
2749;DHT22;1382;52.142;11.618;2024-02-04T14:59:52;13.00;53.30
2749;DHT22;1382;52.142;11.618;2024-02-04T15:02:19;13.00;53.10
2749;DHT22;1382;52.142;11.618;2024-02-04T15:04:46;13.00;53.30
2749;DHT22;1382;52.142;11.618;2024-02-04T15:07:13;12.90;53.80
2749;DHT22;1382;52.142;11.618;2024-02-04T15:09:41;12.90;53.90
2749;DHT22;1382;52.142;11.618;2024-02-04T15:12:09;13.00;54.00
2749;DHT22;1382;52.142;11.618;2024-02-04T15:14:37;13.00;53.80
2749;DHT22;1382;52.142;11.618;2024-02-04T15:17:04;13.00;54.00
2749;DHT22;1382;52.142;11.618;2024-02-04T15:19:31;12.90;53.90
2749;DHT22;1382;52.142;11.618;2024-02-04T15:21:59;12.90;54.30
2749;DHT22;1382;52.142;11.618;2024-02-04T15:24:26;12.90;55.10
2749;DHT22;1382;52.142;11.618;2024-02-04T15:26:56;12.90;54.50
2749;DHT22;1382;52.142;11.618;2024-02-04T15:29:23;12.90;55.10
2749;DHT22;1382;52.142;11.618;2024-02-04T15:31:50;12.90;54.60
2749;DHT22;1382;52.142;11.618;2024-02-04T15:34:18;12.90;54.70
2749;DHT22;1382;52.142;11.618;2024-02-04T15:36:45;12.90;55.00
2749;DHT22;1382;52.142;11.618;2024-02-04T15:39:12;12.90;55.20
2749;DHT22;1382;52.142;11.618;2024-02-04T15:41:39;12.90;55.40
2749;DHT22;1382;52.142;11.618;2024-02-04T15:44:07;13.10;55.10
2749;DHT22;1382;52.142;11.618;2024-02-04T15:46:35;13.00;55.20
2749;DHT22;1382;52.142;11.618;2024-02-04T15:49:02;12.90;55.30
2749;DHT22;1382;52.142;11.618;2024-02-04T15:51:30;12.90;55.40
2749;DHT22;1382;52.142;11.618;2024-02-04T15:53:57;12.90;55.50
2749;DHT22;1382;52.142;11.618;2024-02-04T15:56:27;12.90;55.60
2749;DHT22;1382;52.142;11.618;2024-02-04T15:59:05;13.00;55.80
2749;DHT22;1382;52.142;11.618;2024-02-04T16:01:34;13.00;55.90
2749;DHT22;1382;52.142;11.618;2024-02-04T16:04:02;13.00;56.40
2749;DHT22;1382;52.142;11.618;2024-02-04T16:06:30;13.00;55.90
2749;DHT22;1382;52.142;11.618;2024-02-04T16:08:57;13.00;56.20
2749;DHT22;1382;52.142;11.618;2024-02-04T16:11:25;13.00;56.30
2749;DHT22;1382;52.142;11.618;2024-02-04T16:13:53;13.10;56.10
2749;DHT22;1382;52.142;11.618;2024-02-04T16:16:21;12.90;56.00
2749;DHT22;1382;52.142;11.618;2024-02-04T16:18:50;13.00;56.30
2749;DHT22;1382;52.142;11.618;2024-02-04T16:21:17;13.00;56.50
2749;DHT22;1382;52.142;11.618;2024-02-04T16:23:44;12.90;56.90
2749;DHT22;1382;52.142;11.618;2024-02-04T16:26:11;12.90;57.00
2749;DHT22;1382;52.142;11.618;2024-02-04T16:28:38;13.00;57.20
2749;DHT22;1382;52.142;11.618;2024-02-04T16:31:04;12.90;57.60
2749;DHT22;1382;52.142;11.618;2024-02-04T16:33:31;12.90;57.70
2749;DHT22;1382;52.142;11.618;2024-02-04T16:36:00;12.90;57.90
2749;DHT22;1382;52.142;11.618;2024-02-04T16:38:27;12.90;58.00
2749;DHT22;1382;52.142;11.618;2024-02-04T16:40:54;12.90;58.10
2749;DHT22;1382;52.142;11.618;2024-02-04T16:43:20;12.80;58.10
2749;DHT22;1382;52.142;11.618;2024-02-04T16:45:50;12.80;57.90
2749;DHT22;1382;52.142;11.618;2024-02-04T16:48:17;12.80;58.10
2749;DHT22;1382;52.142;11.618;2024-02-04T16:50:44;12.70;58.00
2749;DHT22;1382;52.142;11.618;2024-02-04T16:53:12;12.70;58.20
2749;DHT22;1382;52.142;11.618;2024-02-04T16:55:39;12.70;58.30
2749;DHT22;1382;52.142;11.618;2024-02-04T16:58:06;12.70;58.30
2749;DHT22;1382;52.142;11.618;2024-02-04T17:00:34;12.70;58.20
2749;DHT22;1382;52.142;11.618;2024-02-04T17:03:01;12.60;58.10
2749;DHT22;1382;52.142;11.618;2024-02-04T17:05:28;12.60;58.00
2749;DHT22;1382;52.142;11.618;2024-02-04T17:08:13;12.60;57.90
2749;DHT22;1382;52.142;11.618;2024-02-04T17:10:41;12.50;57.90
2749;DHT22;1382;52.142;11.618;2024-02-04T17:13:08;12.50;58.30
2749;DHT22;1382;52.142;11.618;2024-02-04T17:15:36;12.50;58.20
2749;DHT22;1382;52.142;11.618;2024-02-04T17:18:04;12.50;58.10
2749;DHT22;1382;52.142;11.618;2024-02-04T17:20:38;12.60;58.10
2749;DHT22;1382;52.142;11.618;2024-02-04T17:23:08;12.60;57.60
2749;DHT22;1382;52.142;11.618;2024-02-04T17:25:38;12.60;57.60
2749;DHT22;1382;52.142;11.618;2024-02-04T17:28:06;12.60;57.80
2749;DHT22;1382;52.142;11.618;2024-02-04T17:30:33;12.60;57.40
2749;DHT22;1382;52.142;11.618;2024-02-04T17:33:01;12.60;57.20
2749;DHT22;1382;52.142;11.618;2024-02-04T17:35:28;12.60;57.30
2749;DHT22;1382;52.142;11.618;2024-02-04T17:37:55;12.50;57.30
2749;DHT22;1382;52.142;11.618;2024-02-04T17:40:22;12.50;57.40
2749;DHT22;1382;52.142;11.618;2024-02-04T17:42:50;12.50;57.60
2749;DHT22;1382;52.142;11.618;2024-02-04T17:45:20;12.50;57.80
2749;DHT22;1382;52.142;11.618;2024-02-04T17:47:47;12.50;57.90
2749;DHT22;1382;52.142;11.618;2024-02-04T17:50:14;12.60;57.60
2749;DHT22;1382;52.142;11.618;2024-02-04T17:52:41;12.60;57.30
2749;DHT22;1382;52.142;11.618;2024-02-04T17:55:08;12.50;57.00
2749;DHT22;1382;52.142;11.618;2024-02-04T17:57:35;12.50;57.00
2749;DHT22;1382;52.142;11.618;2024-02-04T18:00:05;12.40;57.20
2749;DHT22;1382;52.142;11.618;2024-02-04T18:02:37;12.40;57.70
2749;DHT22;1382;52.142;11.618;2024-02-04T18:05:13;12.40;57.90
2749;DHT22;1382;52.142;11.618;2024-02-04T18:07:42;12.40;58.00
2749;DHT22;1382;52.142;11.618;2024-02-04T18:10:10;12.40;58.20
2749;DHT22;1382;52.142;11.618;2024-02-04T18:12:37;12.40;58.10
2749;DHT22;1382;52.142;11.618;2024-02-04T18:15:06;12.40;57.90
2749;DHT22;1382;52.142;11.618;2024-02-04T18:17:33;12.50;58.20
2749;DHT22;1382;52.142;11.618;2024-02-04T18:20:04;12.40;58.00
2749;DHT22;1382;52.142;11.618;2024-02-04T18:22:31;12.40;58.30
2749;DHT22;1382;52.142;11.618;2024-02-04T18:24:58;12.40;58.50
2749;DHT22;1382;52.142;11.618;2024-02-04T18:27:25;12.40;58.50
2749;DHT22;1382;52.142;11.618;2024-02-04T18:29:52;12.40;58.50
2749;DHT22;1382;52.142;11.618;2024-02-04T18:32:20;12.40;58.70
2749;DHT22;1382;52.142;11.618;2024-02-04T18:34:46;12.40;59.00
2749;DHT22;1382;52.142;11.618;2024-02-04T18:37:13;12.40;58.90
2749;DHT22;1382;52.142;11.618;2024-02-04T18:39:40;12.30;59.10
2749;DHT22;1382;52.142;11.618;2024-02-04T18:42:07;12.30;59.30
2749;DHT22;1382;52.142;11.618;2024-02-04T18:44:34;12.40;59.50
2749;DHT22;1382;52.142;11.618;2024-02-04T18:47:00;12.30;59.40
2749;DHT22;1382;52.142;11.618;2024-02-04T18:49:29;12.30;59.40
2749;DHT22;1382;52.142;11.618;2024-02-04T18:51:55;12.30;59.40
2749;DHT22;1382;52.142;11.618;2024-02-04T18:54:22;12.30;59.50
2749;DHT22;1382;52.142;11.618;2024-02-04T18:56:49;12.30;59.50
2749;DHT22;1382;52.142;11.618;2024-02-04T18:59:16;12.30;59.60
2749;DHT22;1382;52.142;11.618;2024-02-04T19:01:43;12.30;59.70
2749;DHT22;1382;52.142;11.618;2024-02-04T19:04:10;12.30;59.70
2749;DHT22;1382;52.142;11.618;2024-02-04T19:06:39;12.30;59.70
2749;DHT22;1382;52.142;11.618;2024-02-04T19:09:05;12.30;59.80
2749;DHT22;1382;52.142;11.618;2024-02-04T19:11:33;12.30;59.90